sensor_id;sensor_type;location;lat;lon;timestamp;P1;durP1;ratioP1;P2;durP2;ratioP2
55641;SDS011;41509;53.108;6.100;2024-03-23T00:56:10;20.92;;;3.13;;
55641;SDS011;41509;53.108;6.100;2024-03-23T00:58:35;13.60;;;2.80;;
55641;SDS011;41509;53.108;6.100;2024-03-23T01:01:01;16.93;;;3.33;;
55641;SDS011;41509;53.108;6.100;2024-03-23T01:03:28;23.45;;;4.10;;
55641;SDS011;41509;53.108;6.100;2024-03-23T01:06:00;14.48;;;3.38;;
55641;SDS011;41509;53.108;6.100;2024-03-23T01:08:26;15.88;;;3.50;;
55641;SDS011;41509;53.108;6.100;2024-03-23T01:10:55;14.93;;;3.57;;
55641;SDS011;41509;53.108;6.100;2024-03-23T01:13:22;16.42;;;2.88;;
55641;SDS011;41509;53.108;6.100;2024-03-23T01:15:51;20.38;;;3.30;;
55641;SDS011;41509;53.108;6.100;2024-03-23T01:18:17;12.75;;;2.20;;
55641;SDS011;41509;53.108;6.100;2024-03-23T01:20:43;12.93;;;2.65;;
55641;SDS011;41509;53.108;6.100;2024-03-23T01:23:09;18.02;;;3.78;;
55641;SDS011;41509;53.108;6.100;2024-03-23T01:25:35;14.02;;;2.70;;
55641;SDS011;41509;53.108;6.100;2024-03-23T01:28:01;14.70;;;2.90;;
55641;SDS011;41509;53.108;6.100;2024-03-23T01:30:26;12.93;;;2.60;;
55641;SDS011;41509;53.108;6.100;2024-03-23T01:32:52;11.57;;;5.20;;
55641;SDS011;41509;53.108;6.100;2024-03-23T01:35:18;8.37;;;2.40;;
55641;SDS011;41509;53.108;6.100;2024-03-23T01:37:43;17.37;;;3.70;;
55641;SDS011;41509;53.108;6.100;2024-03-23T01:40:11;10.10;;;2.83;;
55641;SDS011;41509;53.108;6.100;2024-03-23T01:42:40;11.80;;;3.85;;
55641;SDS011;41509;53.108;6.100;2024-03-23T01:45:07;12.37;;;3.03;;
55641;SDS011;41509;53.108;6.100;2024-03-23T01:47:34;13.10;;;3.25;;
55641;SDS011;41509;53.108;6.100;2024-03-23T01:49:59;20.07;;;3.10;;
55641;SDS011;41509;53.108;6.100;2024-03-23T01:52:28;21.27;;;3.53;;
55641;SDS011;41509;53.108;6.100;2024-03-23T01:54:55;7.95;;;2.17;;
55641;SDS011;41509;53.108;6.100;2024-03-23T01:57:21;11.97;;;2.40;;
55641;SDS011;41509;53.108;6.100;2024-03-23T01:59:49;11.82;;;2.72;;
55641;SDS011;41509;53.108;6.100;2024-03-23T02:02:17;20.58;;;3.08;;
55641;SDS011;41509;53.108;6.100;2024-03-23T02:04:44;10.27;;;2.70;;
55641;SDS011;41509;53.108;6.100;2024-03-23T02:07:10;14.03;;;2.47;;
55641;SDS011;41509;53.108;6.100;2024-03-23T02:09:39;15.50;;;3.00;;
55641;SDS011;41509;53.108;6.100;2024-03-23T02:12:04;12.20;;;2.47;;
55641;SDS011;41509;53.108;6.100;2024-03-23T02:14:31;14.07;;;3.05;;
55641;SDS011;41509;53.108;6.100;2024-03-23T02:16:57;16.38;;;2.70;;
55641;SDS011;41509;53.108;6.100;2024-03-23T02:19:23;19.08;;;3.45;;
55641;SDS011;41509;53.108;6.100;2024-03-23T02:21:49;19.00;;;2.93;;
55641;SDS011;41509;53.108;6.100;2024-03-23T02:24:14;9.13;;;2.40;;
55641;SDS011;41509;53.108;6.100;2024-03-23T02:26:40;16.20;;;2.83;;
55641;SDS011;41509;53.108;6.100;2024-03-23T02:29:06;14.05;;;2.10;;
55641;SDS011;41509;53.108;6.100;2024-03-23T02:31:32;9.20;;;2.33;;
55641;SDS011;41509;53.108;6.100;2024-03-23T02:34:00;6.72;;;2.83;;
55641;SDS011;41509;53.108;6.100;2024-03-23T02:36:26;8.60;;;2.05;;
55641;SDS011;41509;53.108;6.100;2024-03-23T02:38:51;9.33;;;1.60;;
55641;SDS011;41509;53.108;6.100;2024-03-23T02:41:20;11.95;;;2.17;;
55641;SDS011;41509;53.108;6.100;2024-03-23T02:43:49;12.93;;;2.40;;
55641;SDS011;41509;53.108;6.100;2024-03-23T02:48:40;9.50;;;1.98;;
55641;SDS011;41509;53.108;6.100;2024-03-23T02:51:06;14.13;;;2.55;;
55641;SDS011;41509;53.108;6.100;2024-03-23T02:53:32;15.80;;;2.47;;
55641;SDS011;41509;53.108;6.100;2024-03-23T02:55:58;15.27;;;2.17;;
55641;SDS011;41509;53.108;6.100;2024-03-23T02:58:23;10.80;;;2.22;;
55641;SDS011;41509;53.108;6.100;2024-03-23T03:00:49;9.80;;;2.70;;
55641;SDS011;41509;53.108;6.100;2024-03-23T03:03:15;9.77;;;2.20;;
55641;SDS011;41509;53.108;6.100;2024-03-23T03:05:41;15.93;;;2.17;;
55641;SDS011;41509;53.108;6.100;2024-03-23T03:08:06;11.43;;;2.30;;
55641;SDS011;41509;53.108;6.100;2024-03-23T03:10:32;11.80;;;2.10;;
55641;SDS011;41509;53.108;6.100;2024-03-23T03:13:00;14.73;;;1.95;;
55641;SDS011;41509;53.108;6.100;2024-03-23T03:15:26;12.60;;;1.60;;
55641;SDS011;41509;53.108;6.100;2024-03-23T03:17:51;16.00;;;1.97;;
55641;SDS011;41509;53.108;6.100;2024-03-23T03:20:17;13.07;;;2.03;;
55641;SDS011;41509;53.108;6.100;2024-03-23T03:22:43;10.47;;;1.77;;
55641;SDS011;41509;53.108;6.100;2024-03-23T03:25:11;13.77;;;2.38;;
55641;SDS011;41509;53.108;6.100;2024-03-23T03:27:36;10.40;;;2.07;;
55641;SDS011;41509;53.108;6.100;2024-03-23T03:30:02;13.13;;;2.53;;
55641;SDS011;41509;53.108;6.100;2024-03-23T03:32:30;15.50;;;2.10;;
55641;SDS011;41509;53.108;6.100;2024-03-23T03:34:57;10.68;;;1.83;;
55641;SDS011;41509;53.108;6.100;2024-03-23T03:37:22;9.90;;;1.93;;
55641;SDS011;41509;53.108;6.100;2024-03-23T03:39:49;16.55;;;2.08;;
55641;SDS011;41509;53.108;6.100;2024-03-23T03:42:17;10.88;;;2.05;;
55641;SDS011;41509;53.108;6.100;2024-03-23T03:44:42;6.47;;;1.97;;
55641;SDS011;41509;53.108;6.100;2024-03-23T03:47:08;6.47;;;1.47;;
55641;SDS011;41509;53.108;6.100;2024-03-23T03:49:34;8.43;;;1.27;;
55641;SDS011;41509;53.108;6.100;2024-03-23T03:51:59;14.27;;;2.23;;
55641;SDS011;41509;53.108;6.100;2024-03-23T03:54:26;8.27;;;1.60;;
55641;SDS011;41509;53.108;6.100;2024-03-23T03:56:55;12.40;;;1.90;;
55641;SDS011;41509;53.108;6.100;2024-03-23T03:59:20;15.57;;;2.45;;
55641;SDS011;41509;53.108;6.100;2024-03-23T04:01:46;11.53;;;1.90;;
55641;SDS011;41509;53.108;6.100;2024-03-23T04:04:11;10.90;;;2.17;;
55641;SDS011;41509;53.108;6.100;2024-03-23T04:06:38;14.27;;;1.75;;
55641;SDS011;41509;53.108;6.100;2024-03-23T04:09:04;7.60;;;1.70;;
55641;SDS011;41509;53.108;6.100;2024-03-23T04:11:31;7.75;;;1.65;;
55641;SDS011;41509;53.108;6.100;2024-03-23T04:13:57;11.40;;;2.17;;
55641;SDS011;41509;53.108;6.100;2024-03-23T04:16:26;9.50;;;1.67;;
55641;SDS011;41509;53.108;6.100;2024-03-23T04:18:53;5.47;;;1.63;;
55641;SDS011;41509;53.108;6.100;2024-03-23T04:21:19;6.50;;;1.73;;
55641;SDS011;41509;53.108;6.100;2024-03-23T04:23:44;11.13;;;1.83;;
55641;SDS011;41509;53.108;6.100;2024-03-23T04:26:10;10.82;;;2.67;;
55641;SDS011;41509;53.108;6.100;2024-03-23T04:28:36;12.73;;;1.57;;
55641;SDS011;41509;53.108;6.100;2024-03-23T04:31:04;5.47;;;1.50;;
55641;SDS011;41509;53.108;6.100;2024-03-23T04:33:30;9.25;;;2.10;;
55641;SDS011;41509;53.108;6.100;2024-03-23T04:35:56;11.33;;;1.43;;
55641;SDS011;41509;53.108;6.100;2024-03-23T04:38:22;6.50;;;1.30;;
55641;SDS011;41509;53.108;6.100;2024-03-23T04:40:57;8.07;;;2.03;;
55641;SDS011;41509;53.108;6.100;2024-03-23T04:43:23;11.90;;;1.67;;
55641;SDS011;41509;53.108;6.100;2024-03-23T04:45:50;7.85;;;2.00;;
55641;SDS011;41509;53.108;6.100;2024-03-23T04:48:16;10.03;;;1.90;;
55641;SDS011;41509;53.108;6.100;2024-03-23T04:50:41;10.43;;;1.47;;
55641;SDS011;41509;53.108;6.100;2024-03-23T04:53:07;8.20;;;1.80;;
55641;SDS011;41509;53.108;6.100;2024-03-23T04:55:33;9.17;;;1.53;;
55641;SDS011;41509;53.108;6.100;2024-03-23T04:57:58;7.60;;;2.13;;
55641;SDS011;41509;53.108;6.100;2024-03-23T05:00:24;14.00;;;2.70;;
55641;SDS011;41509;53.108;6.100;2024-03-23T05:02:51;7.80;;;1.25;;
55641;SDS011;41509;53.108;6.100;2024-03-23T05:05:18;8.90;;;1.83;;
55641;SDS011;41509;53.108;6.100;2024-03-23T05:07:43;6.47;;;1.47;;
55641;SDS011;41509;53.108;6.100;2024-03-23T05:10:09;8.87;;;1.37;;
55641;SDS011;41509;53.108;6.100;2024-03-23T05:15:05;6.50;;;1.27;;
55641;SDS011;41509;53.108;6.100;2024-03-23T05:17:32;12.82;;;1.75;;
55641;SDS011;41509;53.108;6.100;2024-03-23T05:19:58;8.75;;;1.52;;
55641;SDS011;41509;53.108;6.100;2024-03-23T05:22:25;13.00;;;1.75;;
55641;SDS011;41509;53.108;6.100;2024-03-23T05:24:52;6.95;;;1.65;;
55641;SDS011;41509;53.108;6.100;2024-03-23T05:27:18;11.18;;;2.03;;
55641;SDS011;41509;53.108;6.100;2024-03-23T05:29:43;7.90;;;1.83;;
55641;SDS011;41509;53.108;6.100;2024-03-23T05:32:09;12.30;;;1.73;;
55641;SDS011;41509;53.108;6.100;2024-03-23T05:34:35;9.50;;;2.07;;
55641;SDS011;41509;53.108;6.100;2024-03-23T05:37:00;6.20;;;1.40;;
55641;SDS011;41509;53.108;6.100;2024-03-23T05:39:26;8.70;;;1.57;;
55641;SDS011;41509;53.108;6.100;2024-03-23T05:41:52;9.40;;;1.83;;
55641;SDS011;41509;53.108;6.100;2024-03-23T05:44:21;7.00;;;1.30;;
55641;SDS011;41509;53.108;6.100;2024-03-23T05:46:46;8.07;;;1.35;;
55641;SDS011;41509;53.108;6.100;2024-03-23T05:49:13;8.68;;;1.23;;
55641;SDS011;41509;53.108;6.100;2024-03-23T05:54:05;3.35;;;0.90;;
55641;SDS011;41509;53.108;6.100;2024-03-23T05:56:31;8.23;;;1.23;;
55641;SDS011;41509;53.108;6.100;2024-03-23T05:58:59;3.63;;;0.77;;
55641;SDS011;41509;53.108;6.100;2024-03-23T06:01:25;12.07;;;1.40;;
55641;SDS011;41509;53.108;6.100;2024-03-23T06:03:54;6.80;;;1.60;;
55641;SDS011;41509;53.108;6.100;2024-03-23T06:06:19;7.50;;;1.40;;
55641;SDS011;41509;53.108;6.100;2024-03-23T06:08:45;3.03;;;1.40;;
55641;SDS011;41509;53.108;6.100;2024-03-23T06:11:10;5.33;;;1.27;;
55641;SDS011;41509;53.108;6.100;2024-03-23T06:13:38;7.07;;;2.13;;
55641;SDS011;41509;53.108;6.100;2024-03-23T06:16:04;7.15;;;1.42;;
55641;SDS011;41509;53.108;6.100;2024-03-23T06:18:30;9.23;;;1.70;;
55641;SDS011;41509;53.108;6.100;2024-03-23T06:20:56;13.05;;;1.42;;
55641;SDS011;41509;53.108;6.100;2024-03-23T06:23:22;13.47;;;1.40;;
55641;SDS011;41509;53.108;6.100;2024-03-23T06:25:48;10.67;;;1.63;;
55641;SDS011;41509;53.108;6.100;2024-03-23T06:28:13;8.53;;;1.83;;
55641;SDS011;41509;53.108;6.100;2024-03-23T06:30:41;7.93;;;1.87;;
55641;SDS011;41509;53.108;6.100;2024-03-23T06:33:07;9.02;;;1.42;;
55641;SDS011;41509;53.108;6.100;2024-03-23T06:35:33;4.93;;;0.93;;
55641;SDS011;41509;53.108;6.100;2024-03-23T06:37:58;1.83;;;0.80;;
55641;SDS011;41509;53.108;6.100;2024-03-23T06:40:24;2.03;;;0.63;;
55641;SDS011;41509;53.108;6.100;2024-03-23T06:42:50;2.77;;;0.70;;
55641;SDS011;41509;53.108;6.100;2024-03-23T06:45:18;2.03;;;0.60;;
55641;SDS011;41509;53.108;6.100;2024-03-23T06:47:50;1.75;;;0.50;;
55641;SDS011;41509;53.108;6.100;2024-03-23T06:50:17;2.10;;;0.68;;
55641;SDS011;41509;53.108;6.100;2024-03-23T06:52:42;2.87;;;0.83;;
55641;SDS011;41509;53.108;6.100;2024-03-23T06:55:08;4.70;;;0.90;;
55641;SDS011;41509;53.108;6.100;2024-03-23T06:57:34;4.97;;;0.93;;
55641;SDS011;41509;53.108;6.100;2024-03-23T06:59:59;6.37;;;1.00;;
55641;SDS011;41509;53.108;6.100;2024-03-23T07:02:25;2.43;;;0.60;;
55641;SDS011;41509;53.108;6.100;2024-03-23T07:04:51;8.83;;;1.00;;
55641;SDS011;41509;53.108;6.100;2024-03-23T07:07:16;6.53;;;1.07;;
55641;SDS011;41509;53.108;6.100;2024-03-23T07:09:47;3.28;;;1.10;;
55641;SDS011;41509;53.108;6.100;2024-03-23T07:12:13;4.33;;;0.90;;
55641;SDS011;41509;53.108;6.100;2024-03-23T07:14:39;3.28;;;0.90;;
55641;SDS011;41509;53.108;6.100;2024-03-23T07:17:05;8.13;;;1.10;;
55641;SDS011;41509;53.108;6.100;2024-03-23T07:19:30;5.57;;;0.90;;
55641;SDS011;41509;53.108;6.100;2024-03-23T07:22:01;7.18;;;2.15;;
55641;SDS011;41509;53.108;6.100;2024-03-23T07:24:27;2.80;;;0.98;;
55641;SDS011;41509;53.108;6.100;2024-03-23T07:26:52;6.47;;;1.17;;
55641;SDS011;41509;53.108;6.100;2024-03-23T07:29:19;3.58;;;1.10;;
55641;SDS011;41509;53.108;6.100;2024-03-23T07:31:44;5.50;;;0.90;;
55641;SDS011;41509;53.108;6.100;2024-03-23T07:34:10;7.13;;;1.20;;
55641;SDS011;41509;53.108;6.100;2024-03-23T07:36:39;9.95;;;1.67;;
55641;SDS011;41509;53.108;6.100;2024-03-23T07:39:04;8.07;;;1.60;;
55641;SDS011;41509;53.108;6.100;2024-03-23T07:41:30;10.87;;;1.60;;
55641;SDS011;41509;53.108;6.100;2024-03-23T07:43:56;4.77;;;1.33;;
55641;SDS011;41509;53.108;6.100;2024-03-23T07:46:21;7.83;;;1.53;;
55641;SDS011;41509;53.108;6.100;2024-03-23T07:48:47;5.23;;;1.50;;
55641;SDS011;41509;53.108;6.100;2024-03-23T07:51:17;7.38;;;2.15;;
55641;SDS011;41509;53.108;6.100;2024-03-23T07:53:47;5.25;;;1.52;;
55641;SDS011;41509;53.108;6.100;2024-03-23T07:56:14;4.90;;;1.70;;
55641;SDS011;41509;53.108;6.100;2024-03-23T08:01:10;8.93;;;1.80;;
55641;SDS011;41509;53.108;6.100;2024-03-23T08:03:39;8.77;;;1.92;;
55641;SDS011;41509;53.108;6.100;2024-03-23T08:06:06;8.63;;;1.67;;
55641;SDS011;41509;53.108;6.100;2024-03-23T08:08:32;9.43;;;2.10;;
55641;SDS011;41509;53.108;6.100;2024-03-23T08:10:58;3.80;;;1.20;;
55641;SDS011;41509;53.108;6.100;2024-03-23T08:13:23;14.30;;;2.20;;
55641;SDS011;41509;53.108;6.100;2024-03-23T08:15:49;17.53;;;2.23;;
55641;SDS011;41509;53.108;6.100;2024-03-23T08:18:14;10.17;;;1.80;;
55641;SDS011;41509;53.108;6.100;2024-03-23T08:20:41;8.98;;;1.63;;
55641;SDS011;41509;53.108;6.100;2024-03-23T08:23:07;10.18;;;1.85;;
55641;SDS011;41509;53.108;6.100;2024-03-23T08:25:33;6.78;;;2.15;;
55641;SDS011;41509;53.108;6.100;2024-03-23T08:27:59;10.52;;;1.67;;
55641;SDS011;41509;53.108;6.100;2024-03-23T08:30:25;8.65;;;2.05;;
55641;SDS011;41509;53.108;6.100;2024-03-23T08:32:51;11.00;;;2.25;;
55641;SDS011;41509;53.108;6.100;2024-03-23T08:35:17;3.65;;;1.40;;
55641;SDS011;41509;53.108;6.100;2024-03-23T08:37:43;8.77;;;2.20;;
55641;SDS011;41509;53.108;6.100;2024-03-23T08:40:09;8.70;;;1.80;;
55641;SDS011;41509;53.108;6.100;2024-03-23T08:42:35;6.40;;;1.25;;
55641;SDS011;41509;53.108;6.100;2024-03-23T08:45:01;13.45;;;2.55;;
55641;SDS011;41509;53.108;6.100;2024-03-23T08:47:27;11.13;;;1.75;;
55641;SDS011;41509;53.108;6.100;2024-03-23T08:49:53;12.45;;;1.48;;
55641;SDS011;41509;53.108;6.100;2024-03-23T08:57:13;5.13;;;0.90;;
55641;SDS011;41509;53.108;6.100;2024-03-23T08:59:39;9.20;;;1.10;;
55641;SDS011;41509;53.108;6.100;2024-03-23T09:02:05;10.97;;;1.33;;
55641;SDS011;41509;53.108;6.100;2024-03-23T09:04:30;12.17;;;1.93;;
55641;SDS011;41509;53.108;6.100;2024-03-23T09:06:56;12.20;;;1.63;;
55641;SDS011;41509;53.108;6.100;2024-03-23T09:09:24;6.85;;;1.30;;
55641;SDS011;41509;53.108;6.100;2024-03-23T09:11:49;10.07;;;2.20;;
55641;SDS011;41509;53.108;6.100;2024-03-23T09:14:18;12.52;;;1.85;;
55641;SDS011;41509;53.108;6.100;2024-03-23T09:16:44;3.45;;;0.82;;
55641;SDS011;41509;53.108;6.100;2024-03-23T09:19:10;3.50;;;1.23;;
55641;SDS011;41509;53.108;6.100;2024-03-23T09:21:35;11.07;;;1.00;;
55641;SDS011;41509;53.108;6.100;2024-03-23T09:24:01;4.73;;;1.37;;
55641;SDS011;41509;53.108;6.100;2024-03-23T09:26:27;8.40;;;1.57;;
55641;SDS011;41509;53.108;6.100;2024-03-23T09:28:57;7.32;;;0.90;;
55641;SDS011;41509;53.108;6.100;2024-03-23T09:31:23;6.03;;;1.15;;
55641;SDS011;41509;53.108;6.100;2024-03-23T09:33:49;9.47;;;1.70;;
55641;SDS011;41509;53.108;6.100;2024-03-23T09:36:15;11.30;;;1.48;;
55641;SDS011;41509;53.108;6.100;2024-03-23T09:38:41;10.25;;;0.95;;
55641;SDS011;41509;53.108;6.100;2024-03-23T09:41:07;6.07;;;1.30;;
55641;SDS011;41509;53.108;6.100;2024-03-23T09:43:34;8.18;;;1.00;;
55641;SDS011;41509;53.108;6.100;2024-03-23T09:46:03;4.88;;;1.83;;
55641;SDS011;41509;53.108;6.100;2024-03-23T09:48:29;6.43;;;1.02;;
55641;SDS011;41509;53.108;6.100;2024-03-23T09:50:58;9.20;;;1.42;;
55641;SDS011;41509;53.108;6.100;2024-03-23T09:53:27;3.40;;;1.05;;
55641;SDS011;41509;53.108;6.100;2024-03-23T09:55:52;6.82;;;2.22;;
55641;SDS011;41509;53.108;6.100;2024-03-23T09:58:18;7.57;;;1.00;;
55641;SDS011;41509;53.108;6.100;2024-03-23T10:00:44;5.57;;;0.83;;
55641;SDS011;41509;53.108;6.100;2024-03-23T10:03:10;5.75;;;1.30;;
55641;SDS011;41509;53.108;6.100;2024-03-23T10:05:36;11.57;;;1.90;;
55641;SDS011;41509;53.108;6.100;2024-03-23T10:10:40;6.45;;;1.20;;
55641;SDS011;41509;53.108;6.100;2024-03-23T10:13:06;4.70;;;1.52;;
55641;SDS011;41509;53.108;6.100;2024-03-23T10:15:35;14.65;;;2.00;;
55641;SDS011;41509;53.108;6.100;2024-03-23T10:18:17;8.18;;;1.33;;
55641;SDS011;41509;53.108;6.100;2024-03-23T10:20:47;7.80;;;1.60;;
55641;SDS011;41509;53.108;6.100;2024-03-23T10:23:16;8.70;;;1.77;;
55641;SDS011;41509;53.108;6.100;2024-03-23T10:25:42;7.33;;;1.37;;
55641;SDS011;41509;53.108;6.100;2024-03-23T10:28:11;5.00;;;0.80;;
55641;SDS011;41509;53.108;6.100;2024-03-23T10:30:36;5.10;;;1.47;;
55641;SDS011;41509;53.108;6.100;2024-03-23T10:33:08;2.28;;;0.77;;
55641;SDS011;41509;53.108;6.100;2024-03-23T10:35:38;4.63;;;0.55;;
55641;SDS011;41509;53.108;6.100;2024-03-23T10:38:05;6.03;;;0.82;;
55641;SDS011;41509;53.108;6.100;2024-03-23T10:40:34;5.95;;;1.63;;
55641;SDS011;41509;53.108;6.100;2024-03-23T10:43:00;4.55;;;1.25;;
55641;SDS011;41509;53.108;6.100;2024-03-23T10:45:28;5.97;;;1.10;;
55641;SDS011;41509;53.108;6.100;2024-03-23T10:47:54;9.57;;;1.17;;
55641;SDS011;41509;53.108;6.100;2024-03-23T10:50:21;5.05;;;1.23;;
55641;SDS011;41509;53.108;6.100;2024-03-23T10:52:47;4.25;;;1.00;;
55641;SDS011;41509;53.108;6.100;2024-03-23T10:55:13;9.50;;;1.27;;
55641;SDS011;41509;53.108;6.100;2024-03-23T10:57:55;4.88;;;1.40;;
55641;SDS011;41509;53.108;6.100;2024-03-23T11:00:23;4.50;;;1.65;;
55641;SDS011;41509;53.108;6.100;2024-03-23T11:02:49;3.78;;;0.75;;
55641;SDS011;41509;53.108;6.100;2024-03-23T11:07:53;4.38;;;1.15;;
55641;SDS011;41509;53.108;6.100;2024-03-23T11:10:26;5.18;;;1.13;;
55641;SDS011;41509;53.108;6.100;2024-03-23T11:12:54;5.50;;;1.38;;
55641;SDS011;41509;53.108;6.100;2024-03-23T11:15:23;6.13;;;1.27;;
55641;SDS011;41509;53.108;6.100;2024-03-23T11:18:04;13.40;;;1.30;;
55641;SDS011;41509;53.108;6.100;2024-03-23T11:20:35;9.02;;;2.03;;
55641;SDS011;41509;53.108;6.100;2024-03-23T11:23:01;12.27;;;1.25;;
55641;SDS011;41509;53.108;6.100;2024-03-23T11:25:27;9.65;;;1.42;;
55641;SDS011;41509;53.108;6.100;2024-03-23T11:27:57;8.30;;;1.50;;
55641;SDS011;41509;53.108;6.100;2024-03-23T11:30:35;8.02;;;1.55;;
55641;SDS011;41509;53.108;6.100;2024-03-23T11:33:03;5.75;;;1.23;;
55641;SDS011;41509;53.108;6.100;2024-03-23T11:35:39;6.65;;;1.58;;
55641;SDS011;41509;53.108;6.100;2024-03-23T11:38:15;4.45;;;1.38;;
55641;SDS011;41509;53.108;6.100;2024-03-23T11:40:45;8.63;;;1.25;;
55641;SDS011;41509;53.108;6.100;2024-03-23T11:43:16;8.10;;;1.35;;
55641;SDS011;41509;53.108;6.100;2024-03-23T11:45:50;4.93;;;0.80;;
55641;SDS011;41509;53.108;6.100;2024-03-23T11:48:20;5.75;;;1.10;;
55641;SDS011;41509;53.108;6.100;2024-03-23T11:50:50;2.78;;;0.55;;
55641;SDS011;41509;53.108;6.100;2024-03-23T11:53:23;3.42;;;0.82;;
55641;SDS011;41509;53.108;6.100;2024-03-23T11:55:50;2.90;;;0.85;;
55641;SDS011;41509;53.108;6.100;2024-03-23T11:58:19;2.45;;;0.85;;
55641;SDS011;41509;53.108;6.100;2024-03-23T12:00:49;3.67;;;0.82;;
55641;SDS011;41509;53.108;6.100;2024-03-23T12:03:17;7.50;;;0.60;;
55641;SDS011;41509;53.108;6.100;2024-03-23T12:05:49;7.05;;;1.10;;
55641;SDS011;41509;53.108;6.100;2024-03-23T12:08:24;6.28;;;0.70;;
55641;SDS011;41509;53.108;6.100;2024-03-23T12:11:11;8.70;;;1.17;;
55641;SDS011;41509;53.108;6.100;2024-03-23T12:13:38;5.32;;;1.05;;
55641;SDS011;41509;53.108;6.100;2024-03-23T12:16:09;3.40;;;1.40;;
55641;SDS011;41509;53.108;6.100;2024-03-23T12:18:42;6.68;;;1.30;;
55641;SDS011;41509;53.108;6.100;2024-03-23T12:21:09;1.80;;;0.60;;
55641;SDS011;41509;53.108;6.100;2024-03-23T12:23:35;4.57;;;1.50;;
55641;SDS011;41509;53.108;6.100;2024-03-23T12:26:04;2.28;;;0.38;;
55641;SDS011;41509;53.108;6.100;2024-03-23T12:28:29;3.73;;;0.57;;
55641;SDS011;41509;53.108;6.100;2024-03-23T12:30:55;3.10;;;0.70;;
55641;SDS011;41509;53.108;6.100;2024-03-23T12:33:21;3.85;;;0.70;;
55641;SDS011;41509;53.108;6.100;2024-03-23T12:35:47;1.07;;;0.20;;
55641;SDS011;41509;53.108;6.100;2024-03-23T12:38:16;4.03;;;0.50;;
55641;SDS011;41509;53.108;6.100;2024-03-23T12:40:43;2.08;;;0.50;;
55641;SDS011;41509;53.108;6.100;2024-03-23T12:43:15;1.83;;;0.50;;
55641;SDS011;41509;53.108;6.100;2024-03-23T12:45:41;4.35;;;0.60;;
55641;SDS011;41509;53.108;6.100;2024-03-23T12:48:11;4.30;;;1.23;;
55641;SDS011;41509;53.108;6.100;2024-03-23T12:50:36;7.43;;;0.90;;
55641;SDS011;41509;53.108;6.100;2024-03-23T12:53:04;3.72;;;0.85;;
55641;SDS011;41509;53.108;6.100;2024-03-23T12:55:34;2.78;;;0.73;;
55641;SDS011;41509;53.108;6.100;2024-03-23T12:58:00;5.32;;;1.30;;
55641;SDS011;41509;53.108;6.100;2024-03-23T13:00:27;11.23;;;1.20;;
55641;SDS011;41509;53.108;6.100;2024-03-23T13:02:53;8.43;;;1.10;;
55641;SDS011;41509;53.108;6.100;2024-03-23T13:05:18;9.30;;;1.30;;
55641;SDS011;41509;53.108;6.100;2024-03-23T13:07:47;5.57;;;1.23;;
55641;SDS011;41509;53.108;6.100;2024-03-23T13:10:16;7.07;;;1.30;;
55641;SDS011;41509;53.108;6.100;2024-03-23T13:12:44;8.63;;;1.35;;
55641;SDS011;41509;53.108;6.100;2024-03-23T13:15:10;8.20;;;1.55;;
55641;SDS011;41509;53.108;6.100;2024-03-23T13:17:35;15.60;;;1.83;;
55641;SDS011;41509;53.108;6.100;2024-03-23T13:20:04;6.88;;;1.50;;
55641;SDS011;41509;53.108;6.100;2024-03-23T13:22:31;6.97;;;1.30;;
55641;SDS011;41509;53.108;6.100;2024-03-23T13:25:02;7.55;;;1.50;;
55641;SDS011;41509;53.108;6.100;2024-03-23T13:27:28;5.35;;;1.35;;
55641;SDS011;41509;53.108;6.100;2024-03-23T13:29:53;9.90;;;1.80;;
55641;SDS011;41509;53.108;6.100;2024-03-23T13:32:19;6.20;;;1.10;;
55641;SDS011;41509;53.108;6.100;2024-03-23T13:34:45;6.97;;;1.55;;
55641;SDS011;41509;53.108;6.100;2024-03-23T13:37:10;8.60;;;1.08;;
55641;SDS011;41509;53.108;6.100;2024-03-23T13:39:36;7.97;;;1.20;;
55641;SDS011;41509;53.108;6.100;2024-03-23T13:42:02;2.17;;;0.70;;
55641;SDS011;41509;53.108;6.100;2024-03-23T13:44:28;6.90;;;1.38;;
55641;SDS011;41509;53.108;6.100;2024-03-23T13:46:54;8.00;;;1.50;;
55641;SDS011;41509;53.108;6.100;2024-03-23T13:49:24;3.43;;;1.10;;
55641;SDS011;41509;53.108;6.100;2024-03-23T13:51:51;4.70;;;1.35;;
55641;SDS011;41509;53.108;6.100;2024-03-23T13:56:43;7.97;;;1.13;;
55641;SDS011;41509;53.108;6.100;2024-03-23T13:59:12;10.23;;;1.60;;
55641;SDS011;41509;53.108;6.100;2024-03-23T14:01:38;9.77;;;1.90;;
55641;SDS011;41509;53.108;6.100;2024-03-23T14:04:06;12.93;;;1.45;;
55641;SDS011;41509;53.108;6.100;2024-03-23T14:06:31;16.47;;;1.87;;
55641;SDS011;41509;53.108;6.100;2024-03-23T14:08:57;6.87;;;1.70;;
55641;SDS011;41509;53.108;6.100;2024-03-23T14:11:23;7.32;;;1.60;;
55641;SDS011;41509;53.108;6.100;2024-03-23T14:13:51;9.40;;;2.13;;
55641;SDS011;41509;53.108;6.100;2024-03-23T14:18:45;13.82;;;2.63;;
55641;SDS011;41509;53.108;6.100;2024-03-23T14:21:12;7.13;;;1.48;;
55641;SDS011;41509;53.108;6.100;2024-03-23T14:23:37;8.90;;;1.63;;
55641;SDS011;41509;53.108;6.100;2024-03-23T14:26:06;11.33;;;2.30;;
55641;SDS011;41509;53.108;6.100;2024-03-23T14:28:35;8.70;;;1.60;;
55641;SDS011;41509;53.108;6.100;2024-03-23T14:31:01;7.38;;;1.20;;
55641;SDS011;41509;53.108;6.100;2024-03-23T14:33:35;6.65;;;0.88;;
55641;SDS011;41509;53.108;6.100;2024-03-23T14:36:06;6.18;;;1.17;;
55641;SDS011;41509;53.108;6.100;2024-03-23T14:38:33;4.63;;;0.77;;
55641;SDS011;41509;53.108;6.100;2024-03-23T14:40:59;2.77;;;0.67;;
55641;SDS011;41509;53.108;6.100;2024-03-23T14:43:25;9.07;;;2.00;;
55641;SDS011;41509;53.108;6.100;2024-03-23T14:48:35;5.82;;;1.00;;
55641;SDS011;41509;53.108;6.100;2024-03-23T14:51:01;4.13;;;1.10;;
55641;SDS011;41509;53.108;6.100;2024-03-23T14:53:35;5.57;;;1.13;;
55641;SDS011;41509;53.108;6.100;2024-03-23T14:56:05;6.93;;;1.63;;
55641;SDS011;41509;53.108;6.100;2024-03-23T14:58:32;5.53;;;1.20;;
55641;SDS011;41509;53.108;6.100;2024-03-23T15:01:00;9.13;;;1.33;;
55641;SDS011;41509;53.108;6.100;2024-03-23T15:03:27;6.13;;;1.17;;
55641;SDS011;41509;53.108;6.100;2024-03-23T15:05:53;7.25;;;1.55;;
55641;SDS011;41509;53.108;6.100;2024-03-23T15:08:22;5.82;;;1.83;;
55641;SDS011;41509;53.108;6.100;2024-03-23T15:10:48;11.05;;;2.10;;
55641;SDS011;41509;53.108;6.100;2024-03-23T15:13:14;10.33;;;1.93;;
55641;SDS011;41509;53.108;6.100;2024-03-23T15:15:43;8.93;;;1.10;;
55641;SDS011;41509;53.108;6.100;2024-03-23T15:18:17;7.90;;;1.55;;
55641;SDS011;41509;53.108;6.100;2024-03-23T15:23:17;6.35;;;1.27;;
55641;SDS011;41509;53.108;6.100;2024-03-23T15:25:44;8.93;;;1.40;;
55641;SDS011;41509;53.108;6.100;2024-03-23T15:28:13;16.40;;;1.30;;
55641;SDS011;41509;53.108;6.100;2024-03-23T15:30:48;5.00;;;0.93;;
55641;SDS011;41509;53.108;6.100;2024-03-23T15:33:16;8.10;;;1.23;;
55641;SDS011;41509;53.108;6.100;2024-03-23T15:35:42;8.10;;;1.40;;
55641;SDS011;41509;53.108;6.100;2024-03-23T15:38:07;6.80;;;1.10;;
55641;SDS011;41509;53.108;6.100;2024-03-23T15:40:34;8.13;;;1.17;;
55641;SDS011;41509;53.108;6.100;2024-03-23T15:43:00;3.10;;;0.80;;
55641;SDS011;41509;53.108;6.100;2024-03-23T15:45:26;4.80;;;1.30;;
55641;SDS011;41509;53.108;6.100;2024-03-23T15:47:52;6.10;;;1.27;;
55641;SDS011;41509;53.108;6.100;2024-03-23T15:50:17;4.20;;;1.30;;
55641;SDS011;41509;53.108;6.100;2024-03-23T15:52:43;3.80;;;0.90;;
55641;SDS011;41509;53.108;6.100;2024-03-23T15:55:11;4.07;;;1.07;;
55641;SDS011;41509;53.108;6.100;2024-03-23T15:57:36;6.43;;;0.55;;
55641;SDS011;41509;53.108;6.100;2024-03-23T16:00:02;2.73;;;0.60;;
55641;SDS011;41509;53.108;6.100;2024-03-23T16:02:28;5.50;;;0.80;;
55641;SDS011;41509;53.108;6.100;2024-03-23T16:04:54;3.70;;;0.95;;
55641;SDS011;41509;53.108;6.100;2024-03-23T16:07:20;5.20;;;0.82;;